DIAP/ABJ METAR and TAF weather

Enter ICAO airport designator
Station Type Date Time Source
DIAP METAR 2018/04/20 09:00 UTC NOAA

DIAP 200900Z 26012KT 9999 SCT012 30/25 Q1012 NOSIG


Station Type Date Time Source
DIAP Decoded METAR 2018/04/20 09:00 UTC NOAA

Abidjan, Cote d'Ivoire (DIAP) 05-15N 003-56W 8M
Apr 20, 2018 - 05:00 AM EDT / 2018.04.20 0900 UTC
Wind: from the W (260 degrees) at 14 MPH (12 KT):0
Visibility: greater than 7 mile(s):0
Sky conditions: partly cloudy
Temperature: 86 F (30 C)
Heat index: 96.8 F (36.0 C):1
Dew Point: 77 F (25 C)
Relative Humidity: 74%
Pressure (altimeter): 29.88 in. Hg (1012 hPa)
ob: DIAP 200900Z 26012KT 9999 SCT012 30/25 Q1012 NOSIG
cycle: 9

Station Type Date Time Source
DIAP TAF 2018/04/20 06:57 UTC NOAA

TAF TAF DIAP 200530Z 2006/2112 24008KT 8000 SCT012
TEMPO 2006/2009 BKN012 BKN030
BECMG 2008/2012 23010KT PROB30
TEMPO 2015/2021 TS BKN011 FEW020CB
BECMG 2020/2023 22006KT


Example: see airport list